Weather observations for the past three days for
Norman / Max Westheimer
Imperial (Metric)
Date Time (cdt) Wind (mph) Vis. (mi.) Weather Sky Cond. Temperature (ºF) Relative Humidity Wind Chill (°F) Heat Index (°F) Pressure Precipitation (in)
Air Dwpt 6 hour altimeter (in) sea level (mb) 1 hr 3 hr 6 hr
Max. Min.
09 08:45 Calm 10.00 Fair CLR 64.4 60.8 88% 29.87 0.0
09 07:45 Calm 10.00 Fair CLR 60.8 59 94% 29.85 0.0
09 07:30 Calm 10.00 Fair CLR 57.9 57.2 97% 29.84 0.0
09 07:10 NW 3 10.00 Fair CLR 56.7 55.9 97% 29.84 0.0
09 06:50 N 3 7.00 Fair CLR 56.8 55.9 61.2 54.5 97% 29.84 0.0
09 06:45 Calm 10.00 Fair CLR 57.2 55.4 94% 29.83 0.0
09 06:30 NE 3 10.00 Fair CLR 57 56.3 97% 29.83 0.0
09 06:10 NE 5 1.25 Fog/Mist VV007 56.8 56.1 97% 29.81 0.0
09 05:50 N 3 7.00 Fog/Mist CLR 55.8 54.9 97% 29.81 0.0
09 05:30 N 6 0.25 Fog SCT003 55.2 54.3 97% 29.81 0.0
09 05:10 Calm 7.00 Fog/Mist CLR 56.7 55.6 96% 29.83 0.0
09 04:50 Calm 5.00 Fair CLR 56.8 55.8 96% 29.83 0.0
09 04:30 NW 5 10.00 Fair CLR 57.6 56.5 96% 29.83 0.0
09 04:10 Calm 10.00 Fair CLR 59 57.7 96% 29.83 0.0
09 03:50 SW 5 10.00 Fair CLR 59 58.1 97% 29.83 0.0
09 03:30 Calm 5.00 Fog/Mist CLR 59.4 58.3 96% 29.83 0.0
09 03:10 Calm 10.00 Fair CLR 59.7 58.5 96% 29.84 0.0
09 02:50 Calm 10.00 Fair CLR 59.5 58.3 96% 29.84 0.0
09 02:30 Calm 10.00 Fair CLR 60.3 58.8 95% 29.85 0.0
09 02:10 N 3 10.00 Fair CLR 60.3 58.6 94% 29.85 0.0
09 01:50 Calm 10.00 Fair CLR 61 59.2 94% 29.85 0.0
09 01:30 Calm 10.00 Fair CLR 61.2 59.2 93% 29.86 0.0
09 01:10 Calm 10.00 Fair CLR 60.6 58.6 93% 29.86 0.0
09 00:50 NE 3 10.00 Fair CLR 60.6 58.8 65.7 60.4 94% 29.87 0.0 0.09
09 00:30 N 7 10.00 Fair CLR 60.6 58.8 94% 29.87 0.0
09 00:10 N 10 10.00 Fair CLR 60.6 59 94% 29.85 0.0
08 23:50 NE 9 10.00 Fair CLR 61 59 93% 29.83 0.0
08 23:30 NE 7 10.00 Fair CLR 61.5 59.7 94% 29.83 0.0
08 23:10 NE 6 10.00 Fair CLR 62.1 60.1 93% 29.83 0.0
08 22:50 Calm 10.00 Fair CLR 63.3 60.6 91% 29.83 0.0
08 22:30 Calm 10.00 Fair CLR 62.8 60.4 92% 29.82 0.0
08 22:10 S 6 10.00 Fair CLR 63.1 60.6 92% 29.82 0.0
08 21:50 S 3 10.00 Fair CLR 63.9 61 90% 29.82 0.0 0.09
08 19:45 S 10 10.00 Overcast OVC100 64.4 60.8 88% 29.75 0.0
08 18:45 SW 21 10.00 Thunderstorm Rain Thunderstorm in Vicinity and Breezy SCT012 BKN050 OVC120 80.6 59 48% 81 29.7 0.0
08 17:45 S 14 10.00 Thunderstorm in Vicinity CLR 80.6 59 48% 81 29.7 0.0
08 16:45 S 13 G 20 10.00 Fair CLR 82.4 59 45% 82 29.73 0.0
08 15:54 S 13 G 21 10.00 Fair CLR 82.4 59 45% 82 29.76 0.0
08 14:45 S 9 10.00 Fair CLR 80.6 57.2 45% 81 29.78 0.0
08 13:45 S 15 G 20 10.00 Fair CLR 78.8 57.2 48% 80 29.8 0.0
08 12:45 S 15 10.00 Partly Cloudy SCT032 75.2 53.6 47% 78 29.84 0.0
08 11:47 S 16 10.00 Fair CLR 73.4 51.8 47% 29.87 0.0
08 10:45 S 16 10.00 Fair CLR 71.6 53.6 53% 29.9 0.0
08 09:45 S 16 10.00 Fair CLR 66.2 51.8 60% 29.92 0.0
08 08:45 S 13 10.00 Fair CLR 62.6 51.8 68% 29.93 0.0
08 07:45 S 8 10.00 Fair CLR 57.2 50 77% 29.92 0.0
08 07:30 S 7 10.00 Fair CLR 56.1 50 80% 29.92 0.0
08 07:10 S 7 10.00 Fair CLR 54.1 49.3 84% 29.92 0.0
08 06:50 S 6 10.00 Fair CLR 52.9 48.4 59.5 52.5 85% 29.91 0.0
08 06:45 S 7 10.00 Fair CLR 53.6 48.2 82% 29.91 0.0
08 06:30 S 5 10.00 Fair CLR 53.1 48.4 84% 29.91 0.0
08 06:10 S 7 10.00 Fair CLR 53.6 48.7 84% 29.91 0.0
08 05:50 S 7 10.00 Fair CLR 52.7 48.2 85% 29.91 0.0
08 05:30 S 6 10.00 Fair CLR 53.4 48.4 83% 29.91 0.0
08 05:10 S 8 10.00 Fair CLR 53.4 48.4 83% 29.9 0.0
08 04:50 S 7 10.00 Fair CLR 54 48.4 82% 29.9 0.0
08 04:10 S 9 10.00 Fair CLR 55.6 48.6 77% 29.9 0.0
08 03:50 S 9 10.00 Fair CLR 55.2 48.4 78% 29.9 0.0
08 03:30 S 9 10.00 Fair CLR 55 48 77% 29.9 0.0
08 03:10 S 9 10.00 Fair CLR 56.7 48.4 74% 29.91 0.0
08 02:50 S 9 10.00 Fair CLR 57 48 72% 29.91 0.0
08 02:30 S 10 10.00 Fair CLR 57.6 47.7 70% 29.91 0.0
08 02:10 S 8 10.00 Fair CLR 57.7 47.5 69% 29.92 0.0
08 01:50 S 9 10.00 Fair CLR 58.1 47.3 67% 29.93 0.0
08 01:30 S 10 10.00 Fair CLR 59 47.1 65% 29.93 0.0
08 01:10 S 13 10.00 Fair CLR 59 46.9 64% 29.94 0.0
08 00:50 S 12 10.00 Fair CLR 58.8 46.2 73.4 58.5 63% 29.94 0.0
08 00:30 S 12 10.00 Fair CLR 59.4 45.5 60% 29.94 0.0
08 00:10 S 13 10.00 Fair CLR 59.9 44.2 56% 29.94 0.0
07 23:50 S 10 10.00 Fair CLR 59.5 43.7 56% 29.94 0.0
07 23:30 S 10 10.00 Fair CLR 60.1 43.5 55% 29.95 0.0
07 23:10 S 9 10.00 Fair CLR 59.7 43.7 56% 29.94 0.0
07 22:50 S 8 10.00 Fair CLR 58.6 43.5 57% 29.95 0.0
07 22:30 S 7 10.00 Fair CLR 59.7 43.3 55% 29.94 0.0
07 22:10 S 8 10.00 Fair CLR 60.6 43.2 53% 29.95 0.0
07 21:50 S 8 10.00 Fair CLR 62.4 43.2 50% 29.94 0.0
07 19:45 SE 7 10.00 Fair CLR 71.6 39.2 31% 29.92 0.0
07 18:45 S 6 10.00 Fair CLR 73.4 37.4 27% 29.92 0.0
07 17:45 Calm 10.00 Fair CLR 73.4 37.4 27% 29.93 0.0
07 16:45 W 8 10.00 Fair CLR 73.4 39.2 29% 29.94 0.0
07 15:45 SW 8 10.00 Fair CLR 71.6 39.2 31% 29.97 0.0
07 13:45 W 7 10.00 Fair CLR 69.8 39.2 33% 30.03 0.0
07 12:45 S 9 10.00 Fair CLR 66.2 39.2 37% 30.06 0.0
07 11:45 S 7 10.00 Fair CLR 64.4 39.2 40% 30.09 0.0
07 10:45 S 8 10.00 Fair CLR 62.6 39.2 42% 30.1 0.0
07 09:45 S 7 10.00 Fair CLR 59 39.2 48% 30.12 0.0
07 08:45 SW 5 10.00 Fair CLR 55.4 39.2 55% 30.13 0.0
07 07:45 Calm 10.00 Fair CLR 50 37.4 62% 30.12 0.0
07 07:30 W 3 10.00 Fair CLR 48.9 40.6 73% 30.12 0.0
07 07:10 W 3 10.00 Fair CLR 47.1 40.3 77% 30.11 0.0
07 06:50 W 3 10.00 Fair CLR 45.5 39.9 49.8 44.8 81% 30.11 0.0
07 06:45 W 7 10.00 Fair CLR 44.6 39.2 81% 41 30.1 0.0
07 06:30 W 7 10.00 Fair CLR 45.5 39.7 80% 42 30.1 0.0
07 06:10 W 3 10.00 Fair CLR 45.7 39.9 80% 30.1 0.0
07 05:50 W 3 10.00 Partly Cloudy SCT090 47.3 40.1 76% 30.1 0.0
07 05:30 W 5 10.00 Overcast OVC090 48.7 41.2 75% 47 30.1 0.0
07 05:10 NW 5 10.00 Mostly Cloudy BKN100 48.9 40.8 74% 48 30.09 0.0
07 04:50 NW 3 10.00 Mostly Cloudy BKN100 48.6 40.8 75% 30.08 0.0
07 04:30 NW 6 10.00 Overcast OVC100 49.1 42.3 77% 47 30.08 0.0
07 04:10 NW 3 10.00 Overcast OVC100 48.9 41.7 76% 30.07 0.0
07 03:50 NW 5 10.00 Overcast OVC100 48.9 40.8 74% 48 30.07 0.0
07 03:30 NW 3 10.00 Overcast OVC100 49.5 40.5 71% 30.08 0.0
07 03:10 Calm 10.00 Mostly Cloudy BKN100 47.7 39.7 74% 30.08 0.0
07 02:50 Calm 10.00 Fair CLR 47.1 39.2 74% 30.08 0.0
07 02:30 Calm 10.00 Fair CLR 48.4 39.9 73% 30.08 0.0
07 02:10 Calm 10.00 Fair CLR 47.5 39.6 74% 30.08 0.0
07 01:50 NE 3 10.00 Fair CLR 48.6 39.7 72% 30.09 0.0
07 01:30 N 5 10.00 Fair CLR 48.2 40.1 74% 47 30.1 0.0
07 01:10 N 5 10.00 Fair CLR 48.6 40.3 73% 47 30.1 0.0
07 00:50 N 7 10.00 Fair CLR 47.3 40.5 60.6 46.6 77% 44 30.09 0.0
07 00:30 N 8 10.00 Fair CLR 47.1 40.6 78% 44 30.1 0.0
07 00:10 N 7 10.00 Fair CLR 48.4 41.4 77% 46 30.09 0.0
06 23:30 NW 7 10.00 Fair CLR 50.2 43 76% 30.08 0.0
06 23:10 NE 8 10.00 Fair CLR 51.3 42.3 71% 30.05 0.0
06 22:50 NE 6 10.00 Fair CLR 53.1 43 69% 30.06 0.0
06 22:30 NE 6 10.00 Fair CLR 52.9 42.4 68% 30.06 0.0
06 22:10 NE 3 10.00 Fair CLR 53.4 42.6 67% 30.06 0.0
06 21:50 NE 6 10.00 Partly Cloudy SCT050 53.6 43 67% 30.05 0.0
06 20:45 NE 8 10.00 Overcast OVC050 57.2 42.8 59% 30.02 0.0
06 19:45 NE 9 10.00 Overcast OVC050 60.8 42.8 52% 30.01 0.0
06 18:45 NE 12 10.00 Partly Cloudy SCT048 62.6 42.8 49% 29.99 0.0
06 17:45 NE 12 G 20 10.00 Partly Cloudy SCT044 60.8 42.8 52% 29.99 0.0
06 16:45 N 15 10.00 Mostly Cloudy BKN046 64.4 44.6 49% 29.98 0.0
06 15:45 N 15 G 21 10.00 Fair CLR 64.4 44.6 49% 29.98 0.0
06 14:45 N 18 10.00 Fair CLR 64.4 42.8 46% 29.98 0.0
06 13:45 E 14 10.00 Fair CLR 60.8 41 48% 30 0.0
06 12:45 NE 10 10.00 Fair CLR 59 44.6 59% 30.03 0.0
06 11:45 NE 16 10.00 Partly Cloudy SCT033 57.2 41 55% 30.03 0.0
06 10:45 NE 17 10.00 Mostly Cloudy BKN027 53.6 41 63% 30.04 0.0
06 09:45 NE 21 10.00 Partly Cloudy and Breezy SCT020 51.8 42.8 72% 30 0.0
Date Time (cdt) Wind (mph) Vis. (mi.) Weather Sky Cond. Air Dwpt Max. Min. Relative Humidity Wind Chill (°F) Heat Index (°F) altimeter (in) sea level (mb) 1 hr 3 hr 6 hr
6 hour
Temperature (ºF) Pressure Precipitation (in)